createdAt,value
2018-07-20T00:01:59.672Z,101625.23
2018-07-20T00:04:27.735Z,101624.33
2018-07-20T00:06:55.761Z,101625.64
2018-07-20T00:09:23.784Z,101627.73
2018-07-20T00:11:51.816Z,101623.25
2018-07-20T00:14:19.848Z,101625.14
2018-07-20T00:16:47.896Z,101624.80
2018-07-20T00:19:15.930Z,101622.50
2018-07-20T00:21:43.979Z,101619.02
2018-07-20T00:24:12.015Z,101621.14
2018-07-20T00:26:40.063Z,101626.48
2018-07-20T00:29:08.092Z,101626.03
2018-07-20T00:31:36.217Z,101622.53
2018-07-20T00:34:04.276Z,101623.48
2018-07-20T00:36:32.296Z,101620.80
2018-07-20T00:39:00.332Z,101621.30
2018-07-20T00:41:28.364Z,101622.23
2018-07-20T00:43:56.392Z,101629.33
2018-07-20T00:46:24.405Z,101617.86
2018-07-20T00:48:52.439Z,101621.72
2018-07-20T00:51:20.515Z,101628.81
2018-07-20T00:53:48.547Z,101622.31
2018-07-20T00:56:16.576Z,101624.44
2018-07-20T00:58:44.604Z,101621.06
2018-07-20T01:01:12.655Z,101622.72
2018-07-20T01:03:40.719Z,101623.41
2018-07-20T01:06:08.753Z,101626.35
2018-07-20T01:08:36.832Z,101630.08
2018-07-20T01:11:05.057Z,101620.43
2018-07-20T01:13:33.100Z,101623.34
2018-07-20T01:16:01.147Z,101626.24
2018-07-20T01:18:29.188Z,101621.59
2018-07-20T01:20:57.223Z,101618.80
2018-07-20T01:23:25.276Z,101624.17
2018-07-20T01:25:53.332Z,101621.96
2018-07-20T01:28:21.363Z,101619.98
2018-07-20T01:30:49.402Z,101609.77
2018-07-20T01:33:17.456Z,101608.12
2018-07-20T01:35:45.492Z,101611.63
2018-07-20T01:38:13.520Z,101608.84
2018-07-20T01:40:41.567Z,101609.42
2018-07-20T01:43:09.972Z,101607.81
2018-07-20T01:45:38.004Z,101610.93
2018-07-20T01:48:06.031Z,101602.82
2018-07-20T01:50:34.072Z,101595.96
2018-07-20T01:53:02.119Z,101601.55
2018-07-20T01:55:30.153Z,101598.66
2018-07-20T01:57:58.247Z,101592.95
2018-07-20T02:00:26.330Z,101592.85
2018-07-20T02:02:54.361Z,101595.42
2018-07-20T02:05:22.399Z,101590.53
2018-07-20T02:07:50.424Z,101593.77
2018-07-20T02:10:18.468Z,101594.12
2018-07-20T02:12:46.698Z,101592.63
2018-07-20T02:15:14.732Z,101589.95
2018-07-20T02:17:42.776Z,101591.45
2018-07-20T02:20:10.865Z,101592.17
2018-07-20T02:22:38.901Z,101592.74
2018-07-20T02:25:06.933Z,101583.34
2018-07-20T02:27:34.981Z,101587.28
2018-07-20T02:30:03.025Z,101580.09
2018-07-20T02:32:31.058Z,101578.23
2018-07-20T02:34:59.108Z,101573.92
2018-07-20T02:37:27.163Z,101574.85
2018-07-20T02:39:55.189Z,101568.81
2018-07-20T02:42:23.212Z,101567.56
2018-07-20T02:44:51.248Z,101567.31
2018-07-20T02:47:19.284Z,101568.81
2018-07-20T02:49:47.332Z,101569.89
2018-07-20T02:52:15.369Z,101570.22
2018-07-20T02:54:43.423Z,101569.75
2018-07-20T02:57:11.450Z,101575.00
2018-07-20T02:59:39.512Z,101572.43
2018-07-20T03:02:07.559Z,101577.53
2018-07-20T03:04:35.640Z,101577.89
2018-07-20T03:07:03.672Z,101578.00
2018-07-20T03:09:31.731Z,101577.89
2018-07-20T03:11:59.768Z,101576.60
2018-07-20T03:14:27.803Z,101571.73
2018-07-20T03:16:55.820Z,101576.84
2018-07-20T03:19:23.866Z,101573.13
2018-07-20T03:21:51.892Z,101576.59
2018-07-20T03:24:19.939Z,101583.33
2018-07-20T03:26:47.969Z,101567.55
2018-07-20T03:29:15.992Z,101574.27
2018-07-20T03:31:44.038Z,101574.37
2018-07-20T03:34:12.064Z,101574.37
2018-07-20T03:36:40.125Z,101578.89
2018-07-20T03:39:09.171Z,101577.50
2018-07-20T03:41:38.020Z,101573.68
2018-07-20T03:44:06.491Z,101579.36
2018-07-20T03:46:34.567Z,101577.14
2018-07-20T03:49:02.617Z,101574.96
2018-07-20T03:51:30.683Z,101576.00
2018-07-20T03:53:58.728Z,101571.82
2018-07-20T03:56:26.795Z,101573.56
2018-07-20T03:58:54.876Z,101569.39
2018-07-20T04:01:22.916Z,101570.43
2018-07-20T04:03:50.971Z,101572.64
2018-07-20T04:06:19.008Z,101563.36
2018-07-20T04:08:47.040Z,101553.62
2018-07-20T04:11:15.076Z,101564.41
2018-07-20T04:13:43.132Z,101561.05
2018-07-20T04:16:11.164Z,101560.69
2018-07-20T04:18:39.209Z,101554.20
2018-07-20T04:21:07.319Z,101557.91
2018-07-20T04:23:35.347Z,101557.56
2018-07-20T04:26:03.383Z,101562.45
2018-07-20T04:28:31.408Z,101557.81
2018-07-20T04:30:59.452Z,101558.74
2018-07-20T04:33:27.496Z,101559.67
2018-07-20T04:35:55.566Z,101562.00
2018-07-20T04:38:23.583Z,101560.60
2018-07-20T04:40:51.624Z,101558.95
2018-07-20T04:43:19.647Z,101562.56
2018-07-20T04:45:47.711Z,101559.53
2018-07-20T04:48:15.744Z,101555.13
2018-07-20T04:50:43.815Z,101555.12
2018-07-20T04:53:11.851Z,101560.80
2018-07-20T04:55:39.888Z,101554.39
2018-07-20T04:58:07.908Z,101553.45
2018-07-20T05:00:35.965Z,101558.11
2018-07-20T05:03:04.000Z,101557.52
2018-07-20T05:05:32.075Z,101557.14
2018-07-20T05:08:00.096Z,101560.73
2018-07-20T05:10:28.123Z,101556.31
2018-07-20T05:12:56.183Z,101559.08
2018-07-20T05:15:24.200Z,101554.90
2018-07-20T05:17:52.243Z,101551.36
2018-07-20T05:20:20.275Z,101557.70
2018-07-20T05:22:48.316Z,101550.91
2018-07-20T05:25:16.369Z,101551.55
2018-07-20T05:27:44.409Z,101555.58
2018-07-20T05:30:12.445Z,101546.44
2018-07-20T05:32:40.557Z,101549.67
2018-07-20T05:35:08.523Z,101550.94
2018-07-20T05:37:36.564Z,101555.75
2018-07-20T05:40:04.627Z,101556.16
2018-07-20T05:42:32.738Z,101555.58
2018-07-20T05:45:00.766Z,101556.57
2018-07-20T05:47:28.799Z,101547.61
2018-07-20T05:49:56.821Z,101547.45
2018-07-20T05:52:24.883Z,101552.66
2018-07-20T05:54:52.931Z,101549.33
2018-07-20T05:57:20.972Z,101552.17
2018-07-20T05:59:48.996Z,101554.42
2018-07-20T06:02:17.298Z,101549.23
2018-07-20T06:04:45.324Z,101548.61
2018-07-20T06:07:13.379Z,101545.11
2018-07-20T06:09:41.411Z,101549.67
2018-07-20T06:12:09.475Z,101547.41
2018-07-20T06:14:37.503Z,101545.23
2018-07-20T06:17:05.622Z,101551.28
2018-07-20T06:19:33.697Z,101546.81
2018-07-20T06:22:01.733Z,101548.22
2018-07-20T06:24:29.772Z,101547.57
2018-07-20T06:26:57.806Z,101542.52
2018-07-20T06:29:25.839Z,101556.50
2018-07-20T06:31:53.873Z,101549.43
2018-07-20T06:34:21.905Z,101543.61
2018-07-20T06:36:49.944Z,101541.23
2018-07-20T06:39:17.980Z,101543.66
2018-07-20T06:41:46.056Z,101543.45
2018-07-20T06:44:14.140Z,101545.56
2018-07-20T06:46:42.171Z,101546.67
2018-07-20T06:49:10.209Z,101547.34
2018-07-20T06:51:38.323Z,101551.66
2018-07-20T06:54:06.368Z,101550.70
2018-07-20T06:56:34.476Z,101541.82
2018-07-20T06:59:02.512Z,101546.36
2018-07-20T07:01:30.651Z,101551.34
2018-07-20T07:03:58.711Z,101546.50
2018-07-20T07:06:26.844Z,101544.52
2018-07-20T07:08:54.876Z,101544.41
2018-07-20T07:11:22.904Z,101541.88
2018-07-20T07:13:50.955Z,101550.30
2018-07-20T07:16:19.012Z,101547.37
2018-07-20T07:18:47.057Z,101551.36
2018-07-20T07:21:15.103Z,101549.39
2018-07-20T07:23:43.249Z,101546.77
2018-07-20T07:26:11.212Z,101539.57
2018-07-20T07:28:39.260Z,101542.38
2018-07-20T07:31:07.779Z,101548.42
2018-07-20T07:33:35.812Z,101553.15
2018-07-20T07:36:03.868Z,101552.64
2018-07-20T07:38:31.927Z,101551.45
2018-07-20T07:40:59.960Z,101550.20
2018-07-20T07:43:28.014Z,101555.89
2018-07-20T07:45:56.080Z,101551.29
2018-07-20T07:48:24.159Z,101550.30
2018-07-20T07:50:52.263Z,101546.16
2018-07-20T07:53:20.331Z,101548.24
2018-07-20T07:55:48.392Z,101551.30
2018-07-20T07:58:16.448Z,101540.09
2018-07-20T08:00:44.493Z,101538.98
2018-07-20T08:03:12.620Z,101532.73
2018-07-20T08:05:40.595Z,101538.56
2018-07-20T08:08:08.675Z,101533.20
2018-07-20T08:10:36.747Z,101538.11
2018-07-20T08:13:04.796Z,101538.53
2018-07-20T08:15:32.859Z,101540.23
2018-07-20T08:18:00.904Z,101533.02
2018-07-20T08:20:28.940Z,101530.44
2018-07-20T08:22:57.081Z,101523.88
2018-07-20T08:25:25.051Z,101528.33
2018-07-20T08:27:53.740Z,101529.58
2018-07-20T08:30:21.780Z,101530.39
2018-07-20T08:32:49.849Z,101526.56
2018-07-20T08:35:17.931Z,101514.69
2018-07-20T08:37:45.992Z,101516.91
2018-07-20T08:40:14.061Z,101509.66
2018-07-20T08:42:42.120Z,101511.27
2018-07-20T08:45:10.175Z,101510.06
2018-07-20T08:47:38.293Z,101508.03
2018-07-20T08:50:06.591Z,101513.06
2018-07-20T08:52:34.668Z,101511.68
2018-07-20T08:55:02.716Z,101506.83
2018-07-20T08:57:30.769Z,101508.22
2018-07-20T08:59:58.923Z,101506.16
2018-07-20T09:02:26.940Z,101500.78
2018-07-20T09:04:55.000Z,101498.77
2018-07-20T09:07:23.058Z,101494.67
2018-07-20T09:09:51.128Z,101497.19
2018-07-20T09:12:19.171Z,101499.14
2018-07-20T09:14:47.245Z,101503.15
2018-07-20T09:17:15.292Z,101500.19
2018-07-20T09:19:43.390Z,101491.17
2018-07-20T09:22:11.420Z,101494.31
2018-07-20T09:24:39.503Z,101490.11
2018-07-20T09:27:07.551Z,101495.28
2018-07-20T09:29:35.624Z,101489.88
2018-07-20T09:32:03.668Z,101484.39
2018-07-20T09:34:31.808Z,101489.64
2018-07-20T09:36:59.879Z,101492.02
2018-07-20T09:39:27.967Z,101496.45
2018-07-20T09:41:56.009Z,101488.02
2018-07-20T09:44:24.100Z,101490.89
2018-07-20T09:46:52.117Z,101488.97
2018-07-20T09:49:20.167Z,101488.00
2018-07-20T09:51:48.243Z,101488.98
2018-07-20T09:54:16.299Z,101496.03
2018-07-20T09:56:44.452Z,101485.02
2018-07-20T09:59:12.552Z,101483.62
2018-07-20T10:01:40.597Z,101486.38
2018-07-20T10:04:08.667Z,101482.77
2018-07-20T10:06:36.780Z,101485.09
2018-07-20T10:09:08.075Z,101481.02
2018-07-20T10:11:36.164Z,101483.16
2018-07-20T10:14:04.204Z,101485.31
2018-07-20T10:16:32.319Z,101478.44
2018-07-20T10:19:00.416Z,101473.02
2018-07-20T10:21:28.433Z,101477.09
2018-07-20T10:23:56.503Z,101475.48
2018-07-20T10:26:24.536Z,101471.41
2018-07-20T10:28:52.592Z,101466.88
2018-07-20T10:31:20.624Z,101463.14
2018-07-20T10:33:48.681Z,101453.41
2018-07-20T10:36:16.728Z,101458.22
2018-07-20T10:38:44.772Z,101456.52
2018-07-20T10:41:12.812Z,101454.81
2018-07-20T10:43:40.883Z,101453.73
2018-07-20T10:46:08.991Z,101449.36
2018-07-20T10:48:37.033Z,101454.17
2018-07-20T10:51:05.088Z,101452.41
2018-07-20T10:53:33.155Z,101451.47
2018-07-20T10:56:01.209Z,101446.49
2018-07-20T10:58:29.283Z,101446.48
2018-07-20T11:00:57.348Z,101446.70
2018-07-20T11:03:25.393Z,101449.95
2018-07-20T11:05:53.456Z,101441.13
2018-07-20T11:08:21.523Z,101446.86
2018-07-20T11:10:49.612Z,101445.73
2018-07-20T11:13:17.652Z,101434.67
2018-07-20T11:15:45.733Z,101438.02
2018-07-20T11:18:13.772Z,101438.23
2018-07-20T11:20:41.820Z,101438.31
2018-07-20T11:23:09.924Z,101434.72
2018-07-20T11:25:37.975Z,101437.98
2018-07-20T11:28:06.068Z,101424.17
2018-07-20T11:30:34.087Z,101416.88
2018-07-20T11:33:02.131Z,101416.76
2018-07-20T11:35:30.205Z,101438.80
2018-07-20T11:37:58.271Z,101424.03
2018-07-20T11:40:26.352Z,101419.14
2018-07-20T11:42:54.448Z,101414.61
2018-07-20T11:45:22.520Z,101410.19
2018-07-20T11:47:50.579Z,101409.00
2018-07-20T11:50:18.656Z,101410.53
2018-07-20T11:52:46.732Z,101410.34
2018-07-20T11:55:14.786Z,101411.48
2018-07-20T11:57:42.868Z,101404.73
2018-07-20T12:00:10.935Z,101397.34
2018-07-20T12:02:39.004Z,101392.94
2018-07-20T12:05:07.084Z,101384.50
2018-07-20T12:07:35.139Z,101386.16
2018-07-20T12:10:03.224Z,101388.09
2018-07-20T12:12:31.285Z,101384.11
2018-07-20T12:14:59.339Z,101376.49
2018-07-20T12:17:27.404Z,101375.53
2018-07-20T12:19:55.479Z,101372.80
2018-07-20T12:22:24.313Z,101374.41
2018-07-20T12:24:52.380Z,101371.56
2018-07-20T12:27:20.424Z,101365.19
2018-07-20T12:29:48.496Z,101366.00
2018-07-20T12:32:16.580Z,101357.05
2018-07-20T12:34:44.616Z,101357.22
2018-07-20T12:37:12.691Z,101352.12
2018-07-20T12:39:40.737Z,101343.86
2018-07-20T12:42:08.783Z,101348.45
2018-07-20T12:44:36.828Z,101350.19
2018-07-20T12:47:04.904Z,101346.06
2018-07-20T12:49:32.943Z,101342.25
2018-07-20T12:52:01.001Z,101344.31
2018-07-20T12:54:29.036Z,101344.12
2018-07-20T12:56:57.085Z,101339.69
2018-07-20T12:59:25.117Z,101340.81
2018-07-20T13:01:53.193Z,101343.62
2018-07-20T13:04:21.295Z,101341.20
2018-07-20T13:06:49.340Z,101334.67
2018-07-20T13:09:17.397Z,101338.98
2018-07-20T13:11:45.550Z,101333.86
2018-07-20T13:14:13.568Z,101328.09
2018-07-20T13:16:42.239Z,101326.91
2018-07-20T13:19:10.290Z,101324.77
2018-07-20T13:21:38.391Z,101313.77
2018-07-20T13:24:06.675Z,101314.92
2018-07-20T13:26:34.735Z,101318.98
2018-07-20T13:29:02.799Z,101307.48
2018-07-20T13:31:30.863Z,101312.27
2018-07-20T13:33:58.896Z,101310.48
2018-07-20T13:36:26.975Z,101306.98
2018-07-20T13:38:55.017Z,101306.30
2018-07-20T13:41:23.068Z,101299.53
2018-07-20T13:43:51.135Z,101302.27
2018-07-20T13:46:19.210Z,101299.76
2018-07-20T13:48:47.288Z,101297.34
2018-07-20T13:51:15.361Z,101293.53
2018-07-20T13:53:43.415Z,101292.22
2018-07-20T13:56:11.493Z,101291.19
2018-07-20T13:58:39.527Z,101292.44
2018-07-20T14:01:07.590Z,101284.75
2018-07-20T14:03:35.677Z,101279.19
2018-07-20T14:06:03.768Z,101280.16
2018-07-20T14:08:31.816Z,101275.69
2018-07-20T14:10:59.867Z,101273.45
2018-07-20T14:13:27.940Z,101274.59
2018-07-20T14:15:55.980Z,101265.16
2018-07-20T14:18:24.050Z,101264.94
2018-07-20T14:20:52.131Z,101261.88
2018-07-20T14:23:20.203Z,101257.34
2018-07-20T14:25:48.247Z,101254.33
2018-07-20T14:28:16.287Z,101252.44
2018-07-20T14:30:44.422Z,101250.92
2018-07-20T14:33:12.501Z,101255.84
2018-07-20T14:35:40.551Z,101242.98
2018-07-20T14:38:08.612Z,101244.74
2018-07-20T14:40:36.668Z,101241.12
2018-07-20T14:43:04.802Z,101244.50
2018-07-20T14:45:32.811Z,101234.45
2018-07-20T14:48:00.895Z,101235.31
2018-07-20T14:50:28.940Z,101235.16
2018-07-20T14:52:57.027Z,101231.70
2018-07-20T14:55:25.076Z,101229.14
2018-07-20T14:57:53.129Z,101230.13
2018-07-20T15:00:21.188Z,101225.02
2018-07-20T15:02:49.256Z,101226.14
2018-07-20T15:05:17.314Z,101229.63
2018-07-20T15:07:45.366Z,101222.92
2018-07-20T15:10:13.426Z,101223.04
2018-07-20T15:12:41.513Z,101215.81
2018-07-20T15:15:09.784Z,101219.45
2018-07-20T15:17:38.167Z,101217.16
2018-07-20T15:20:06.316Z,101221.78
2018-07-20T15:22:34.639Z,101216.87
2018-07-20T15:25:02.672Z,101219.73
2018-07-20T15:27:30.780Z,101217.19
2018-07-20T15:29:58.823Z,101214.98
2018-07-20T15:32:26.864Z,101222.45
2018-07-20T15:34:54.924Z,101223.73
2018-07-20T15:37:22.975Z,101218.64
2018-07-20T15:39:51.085Z,101218.33
2018-07-20T15:42:19.104Z,101219.58
2018-07-20T15:44:47.220Z,101220.72
2018-07-20T15:47:15.344Z,101214.02
2018-07-20T15:49:43.337Z,101214.02
2018-07-20T15:54:39.449Z,101209.69
2018-07-20T15:57:07.636Z,101207.89
2018-07-20T15:59:35.725Z,101204.97
2018-07-20T16:02:04.029Z,101206.13
2018-07-20T16:04:32.116Z,101200.75
2018-07-20T16:07:00.231Z,101189.69
2018-07-20T16:09:28.324Z,101196.52
2018-07-20T16:11:56.379Z,101192.70
2018-07-20T16:14:24.424Z,101188.34
2018-07-20T16:16:52.468Z,101183.36
2018-07-20T16:19:20.530Z,101183.75
2018-07-20T16:21:48.572Z,101180.19
2018-07-20T16:24:16.629Z,101176.20
2018-07-20T16:26:44.692Z,101170.20
2018-07-20T16:29:12.747Z,101163.39
2018-07-20T16:31:40.788Z,101169.43
2018-07-20T16:34:08.876Z,101167.63
2018-07-20T16:36:36.939Z,101160.60
2018-07-20T16:39:07.532Z,101164.22
2018-07-20T16:41:35.571Z,101155.84
2018-07-20T16:44:03.628Z,101160.17
2018-07-20T16:46:31.676Z,101155.59
2018-07-20T16:48:59.737Z,101154.17
2018-07-20T16:51:27.836Z,101151.17
2018-07-20T16:53:55.887Z,101144.37
2018-07-20T16:56:23.939Z,101138.37
2018-07-20T16:58:51.996Z,101136.95
2018-07-20T17:01:20.060Z,101136.95
2018-07-20T17:03:48.117Z,101134.34
2018-07-20T17:06:16.172Z,101138.41
2018-07-20T17:08:44.224Z,101140.33
2018-07-20T17:11:12.265Z,101130.62
2018-07-20T17:13:40.331Z,101131.86
2018-07-20T17:16:08.371Z,101134.61
2018-07-20T17:18:36.423Z,101132.05
2018-07-20T17:21:04.476Z,101131.86
2018-07-20T17:23:32.524Z,101137.94
2018-07-20T17:26:00.676Z,101136.02
2018-07-20T17:28:28.716Z,101134.66
2018-07-20T17:30:56.764Z,101136.98
2018-07-20T17:33:24.875Z,101136.55
2018-07-20T17:35:52.937Z,101135.68
2018-07-20T17:38:20.989Z,101131.86
2018-07-20T17:40:49.067Z,101130.49
2018-07-20T17:43:17.116Z,101131.51
2018-07-20T17:45:45.215Z,101126.27
2018-07-20T17:48:13.267Z,101130.20
2018-07-20T17:50:41.349Z,101130.05
2018-07-20T17:53:09.395Z,101134.12
2018-07-20T17:55:37.487Z,101139.36
2018-07-20T17:58:05.531Z,101136.52
2018-07-20T18:00:33.608Z,101139.21
2018-07-20T18:03:01.695Z,101131.98
2018-07-20T18:05:30.096Z,101132.45
2018-07-20T18:07:58.159Z,101129.88
2018-07-20T18:10:26.226Z,101132.03
2018-07-20T18:12:54.252Z,101126.54
2018-07-20T18:15:22.380Z,101127.58
2018-07-20T18:17:50.459Z,101119.23
2018-07-20T18:20:18.484Z,101128.27
2018-07-20T18:22:46.559Z,101122.72
2018-07-20T18:25:15.479Z,101125.73
2018-07-20T18:27:43.538Z,101120.25
2018-07-20T18:30:11.591Z,101120.28
2018-07-20T18:32:39.662Z,101122.15
2018-07-20T18:35:07.716Z,101121.66
2018-07-20T18:37:35.755Z,101118.29
2018-07-20T18:40:03.820Z,101120.80
2018-07-20T18:42:31.854Z,101118.22
2018-07-20T18:44:59.904Z,101122.66
2018-07-20T18:47:27.963Z,101127.17
2018-07-20T18:49:56.019Z,101124.43
2018-07-20T18:52:24.079Z,101125.58
2018-07-20T18:54:52.115Z,101121.79
2018-07-20T18:57:20.144Z,101128.97
2018-07-20T18:59:48.220Z,101125.39
2018-07-20T19:02:16.228Z,101125.95
2018-07-20T19:04:44.286Z,101132.13
2018-07-20T19:07:12.342Z,101137.95
2018-07-20T19:09:40.400Z,101133.01
2018-07-20T19:12:08.444Z,101141.09
2018-07-20T19:14:36.492Z,101135.74
2018-07-20T19:17:04.582Z,101134.02
2018-07-20T19:19:32.604Z,101134.06
2018-07-20T19:22:00.636Z,101135.11
2018-07-20T19:24:28.712Z,101127.96
2018-07-20T19:26:56.784Z,101131.70
2018-07-20T19:29:24.825Z,101138.91
2018-07-20T19:31:52.887Z,101137.56
2018-07-20T19:34:20.980Z,101139.27
2018-07-20T19:36:48.968Z,101146.17
2018-07-20T19:39:17.008Z,101149.84
2018-07-20T19:41:45.073Z,101147.73
2018-07-20T19:44:13.112Z,101152.27
2018-07-20T19:46:41.178Z,101154.75
2018-07-20T19:49:09.256Z,101148.63
2018-07-20T19:51:37.309Z,101152.78
2018-07-20T19:54:05.512Z,101153.03
2018-07-20T19:56:33.584Z,101152.45
2018-07-20T19:59:01.648Z,101152.68
2018-07-20T20:01:29.704Z,101157.58
2018-07-20T20:03:57.776Z,101162.45
2018-07-20T20:06:25.824Z,101163.53
2018-07-20T20:08:53.863Z,101158.36
2018-07-20T20:11:21.951Z,101173.17
2018-07-20T20:13:50.020Z,101172.03
2018-07-20T20:16:18.100Z,101173.65
2018-07-20T20:18:46.150Z,101175.06
2018-07-20T20:21:14.251Z,101177.69
2018-07-20T20:23:42.311Z,101175.71
2018-07-20T20:26:10.368Z,101173.96
2018-07-20T20:28:38.427Z,101172.56
2018-07-20T20:31:06.542Z,101178.27
2018-07-20T20:33:34.580Z,101173.69
2018-07-20T20:36:02.671Z,101176.19
2018-07-20T20:38:30.704Z,101177.47
2018-07-20T20:40:58.784Z,101175.50
2018-07-20T20:43:26.992Z,101176.36
2018-07-20T20:45:55.079Z,101183.26
2018-07-20T20:48:23.128Z,101182.52
2018-07-20T20:50:51.215Z,101181.16
2018-07-20T20:53:19.232Z,101179.19
2018-07-20T20:55:47.271Z,101181.27
2018-07-20T20:58:15.320Z,101176.08
2018-07-20T21:00:43.380Z,101167.89
2018-07-20T21:03:11.441Z,101183.23
2018-07-20T21:05:39.492Z,101182.84
2018-07-20T21:08:07.524Z,101184.88
2018-07-20T21:10:35.577Z,101185.72
2018-07-20T21:13:04.437Z,101191.78
2018-07-20T21:15:32.503Z,101190.61
2018-07-20T21:18:00.545Z,101191.86
2018-07-20T21:20:28.624Z,101186.05
2018-07-20T21:22:56.692Z,101194.95
2018-07-20T21:25:24.793Z,101179.11
2018-07-20T21:27:52.836Z,101193.42
2018-07-20T21:30:20.868Z,101198.48
2018-07-20T21:32:48.944Z,101197.28
2018-07-20T21:35:16.980Z,101198.09
2018-07-20T21:37:45.053Z,101196.31
2018-07-20T21:40:13.118Z,101192.70
2018-07-20T21:42:41.184Z,101190.50
2018-07-20T21:45:09.219Z,101193.11
2018-07-20T21:47:37.259Z,101192.73
2018-07-20T21:50:05.319Z,101196.77
2018-07-20T21:52:33.380Z,101202.16
2018-07-20T21:55:01.645Z,101204.78
2018-07-20T21:57:29.751Z,101205.77
2018-07-20T21:59:57.787Z,101203.95
2018-07-20T22:02:25.842Z,101206.16
2018-07-20T22:04:53.949Z,101205.16
2018-07-20T22:07:21.992Z,101209.34
2018-07-20T22:09:50.024Z,101209.97
2018-07-20T22:12:18.132Z,101204.53
2018-07-20T22:14:46.167Z,101204.13
2018-07-20T22:17:14.236Z,101205.31
2018-07-20T22:19:42.280Z,101202.87
2018-07-20T22:22:10.327Z,101200.88
2018-07-20T22:24:38.396Z,101201.25
2018-07-20T22:27:06.435Z,101199.25
2018-07-20T22:29:34.499Z,101190.55
2018-07-20T22:32:02.540Z,101191.15
2018-07-20T22:34:30.576Z,101187.92
2018-07-20T22:36:58.639Z,101180.67
2018-07-20T22:39:26.676Z,101186.66
2018-07-20T22:41:54.739Z,101194.67
2018-07-20T22:44:22.804Z,101197.48
2018-07-20T22:46:50.871Z,101192.41
2018-07-20T22:49:18.903Z,101190.80
2018-07-20T22:51:46.959Z,101191.56
2018-07-20T22:54:15.008Z,101189.69
2018-07-20T22:56:43.052Z,101200.91
2018-07-20T22:59:11.127Z,101190.23
2018-07-20T23:01:39.199Z,101185.52
2018-07-20T23:04:07.244Z,101182.86
2018-07-20T23:06:35.300Z,101182.59
2018-07-20T23:09:03.960Z,101176.92
2018-07-20T23:11:31.991Z,101182.67
2018-07-20T23:14:00.037Z,101176.98
2018-07-20T23:16:28.068Z,101175.73
2018-07-20T23:18:56.113Z,101172.89
2018-07-20T23:21:24.169Z,101165.63
2018-07-20T23:23:52.212Z,101172.03
2018-07-20T23:26:20.243Z,101171.38
2018-07-20T23:28:48.285Z,101171.53
2018-07-20T23:31:16.320Z,101166.06
2018-07-20T23:33:44.362Z,101169.57
2018-07-20T23:36:12.407Z,101166.72
2018-07-20T23:38:40.476Z,101171.88
2018-07-20T23:41:08.508Z,101173.42
2018-07-20T23:43:36.555Z,101168.95
2018-07-20T23:46:04.585Z,101160.71
2018-07-20T23:48:32.636Z,101165.08
2018-07-20T23:51:00.728Z,101169.42
2018-07-20T23:53:28.760Z,101165.16
2018-07-20T23:55:56.823Z,101159.45
2018-07-20T23:58:24.868Z,101161.22
